Aérodrome :
LOGIN :

S'inscrire | Disclaimer

   EN    FR    IT 

 










Légende :    VFR   VFR Marginal   IFR   IFR Intensif   IFR Très Intensif
Visi : 
Plafond : 
>= 8 km
>= 3000ft
5 à 8 km
1000 à 3000 ft
1500m à 5 km
500 à 1000 ft
800 à 1500m
200 à 500 ft
< 800m
< 200 ft
Symboles :   Orages  Brouillard  Fortes neiges  Fortes précipitations  Vent > 20 kt
SIGMETs :   Divers  Orages  Givrage  Turbulence  Onde Orograph.  Cendres Volcan.







- Altitude de l'aérodrome : 267 ft


EGDR - Culdrose Navy

DERNIER METAR :
  • 152050Z 01003KT 9999 FEW006 SCT008 BKN010 13/11 Q1013 GRN BECMG SCT004 YLO2

METARs EXPIRÉS :
  • 152021Z 02004KT 9999 FEW006 SCT008 BKN010 13/11 Q1013 GRN BECMG SCT004 YLO2
  • 151950Z 06004KT 9999 FEW006 SCT008 BKN012 13/11 Q1012 GRN BECMG SCT006 YLO2
  • 151923Z 04004KT 9999 SCT013 BKN022 12/11 Q1012 GRN TEMPO 6000 -DZ SCT006 YLO1
  • 151850Z 05005KT 9999 SCT011 BKN018 13/11 Q1012 GRN TEMPO 6000 -DZ SCT006 YLO1
  • 151821Z 06004KT 9999 SCT011 SCT018 BKN050 12/11 Q1012 GRN TEMPO 6000 -DZ SCT006 YLO1
  • 151750Z 02003KT 9999 SCT013 BKN020 BKN060 13/11 Q1012 GRN TEMPO 6000 -DZ SCT006 YLO1

TAF TAF EGDR
Valide du 15 à 15h jusqu'au 16 à 00h UTC


151354Z 1515/1524 04007KT 9999 SCT012 BKN015
PROB30
TEMPO 1519/1521 6000 -DZ SCT006 OVC015
BECMG 1521/1523 SCT004 OVC015
Pas de NOTAMs connus pour ce terrain.



MET'MAP, la Météo Aéronautique d'un coup d'oeil ! - Copyright ORBIFLY Décembre 2007 - Disclaimer

ORBIFLY MET'MAP TEAM :

Programmation & Développement : Alexandra Zaïnal
Conception & Développement : Baudouin d'Aumeries
Co-Programmation & Développement : Marc-Olivier Méhu
Soutien technique & logistique : Manuel Goepfert

Contact : metmap@orbifly.com




SOURCES & CREDITS :

   NOAA